Terminal Aerodrome Forecast
Issued by NWS Miami, FL

Home | Current Version | Previous Version | Text Only | Print | Product List | Glossary On
Versions: 1 2 3 4 5 6 7 8 9 10 11 12 13 14 15 16 17 18 19 20 21 22 23 24 25
000
FTUS42 KMFL 221456 AAA
TAFFLL
TAF AMD
KFLL 221456Z 2215/2318 12014KT P6SM SCT025 BKN050
     FM222200 12009KT P6SM SCT020 SCT050
     FM230600 11007KT P6SM VCSH SCT020 BKN040
     FM231500 15010KT P6SM VCSH SCT030 SCT035=

USA.gov is the U.S. government's official web portal to all federal, state and local government web resources and services.